sensor_id;sensor_type;location;lat;lon;timestamp;temperature;humidity
8856;DHT22;4464;50.882;4.730;2023-03-23T00:02:31;13.30;99.90
8856;DHT22;4464;50.882;4.730;2023-03-23T00:05:05;13.30;99.90
8856;DHT22;4464;50.882;4.730;2023-03-23T00:07:33;13.40;99.90
8856;DHT22;4464;50.882;4.730;2023-03-23T00:09:59;13.30;99.90
8856;DHT22;4464;50.882;4.730;2023-03-23T00:12:31;13.30;99.90
8856;DHT22;4464;50.882;4.730;2023-03-23T00:15:04;13.40;99.90
8856;DHT22;4464;50.882;4.730;2023-03-23T00:17:34;13.40;99.90
8856;DHT22;4464;50.882;4.730;2023-03-23T00:20:01;13.40;99.90
8856;DHT22;4464;50.882;4.730;2023-03-23T00:22:29;13.40;99.90
8856;DHT22;4464;50.882;4.730;2023-03-23T00:24:58;13.40;99.90
8856;DHT22;4464;50.882;4.730;2023-03-23T00:27:23;13.40;99.90
8856;DHT22;4464;50.882;4.730;2023-03-23T00:29:50;13.40;99.90
8856;DHT22;4464;50.882;4.730;2023-03-23T00:32:23;13.40;99.90
8856;DHT22;4464;50.882;4.730;2023-03-23T00:34:58;13.40;99.90
8856;DHT22;4464;50.882;4.730;2023-03-23T00:37:27;13.40;99.90
8856;DHT22;4464;50.882;4.730;2023-03-23T00:39:55;13.40;99.90
8856;DHT22;4464;50.882;4.730;2023-03-23T00:42:25;13.40;99.90
8856;DHT22;4464;50.882;4.730;2023-03-23T00:44:51;13.40;99.90
8856;DHT22;4464;50.882;4.730;2023-03-23T00:47:25;13.40;99.90
8856;DHT22;4464;50.882;4.730;2023-03-23T00:49:51;13.40;99.90
8856;DHT22;4464;50.882;4.730;2023-03-23T00:52:21;13.40;99.90
8856;DHT22;4464;50.882;4.730;2023-03-23T00:54:47;13.40;99.90
8856;DHT22;4464;50.882;4.730;2023-03-23T00:57:13;13.40;99.90
8856;DHT22;4464;50.882;4.730;2023-03-23T00:59:42;13.30;99.90
8856;DHT22;4464;50.882;4.730;2023-03-23T01:02:07;13.40;99.90
8856;DHT22;4464;50.882;4.730;2023-03-23T01:04:33;13.30;99.90
8856;DHT22;4464;50.882;4.730;2023-03-23T01:07:02;13.30;99.90
8856;DHT22;4464;50.882;4.730;2023-03-23T01:09:28;13.30;99.90
8856;DHT22;4464;50.882;4.730;2023-03-23T01:11:55;13.30;99.90
8856;DHT22;4464;50.882;4.730;2023-03-23T01:14:24;13.30;99.90
8856;DHT22;4464;50.882;4.730;2023-03-23T01:16:50;13.30;99.90
8856;DHT22;4464;50.882;4.730;2023-03-23T01:19:18;13.30;99.90
8856;DHT22;4464;50.882;4.730;2023-03-23T01:21:46;13.30;99.90
8856;DHT22;4464;50.882;4.730;2023-03-23T01:24:12;13.30;99.90
8856;DHT22;4464;50.882;4.730;2023-03-23T01:26:38;13.40;99.90
8856;DHT22;4464;50.882;4.730;2023-03-23T01:29:04;13.40;99.90
8856;DHT22;4464;50.882;4.730;2023-03-23T01:31:29;13.40;99.90
8856;DHT22;4464;50.882;4.730;2023-03-23T01:33:55;13.40;99.90
8856;DHT22;4464;50.882;4.730;2023-03-23T01:36:27;13.40;99.90
8856;DHT22;4464;50.882;4.730;2023-03-23T01:38:56;13.40;99.90
8856;DHT22;4464;50.882;4.730;2023-03-23T01:41:23;13.40;99.90
8856;DHT22;4464;50.882;4.730;2023-03-23T01:44:59;13.40;99.90
8856;DHT22;4464;50.882;4.730;2023-03-23T01:46:52;13.40;99.90
8856;DHT22;4464;50.882;4.730;2023-03-23T01:49:27;13.40;99.90
8856;DHT22;4464;50.882;4.730;2023-03-23T01:51:56;13.40;99.90
8856;DHT22;4464;50.882;4.730;2023-03-23T01:54:23;13.40;99.90
8856;DHT22;4464;50.882;4.730;2023-03-23T01:56:59;13.30;99.90
8856;DHT22;4464;50.882;4.730;2023-03-23T01:59:27;13.30;99.90
8856;DHT22;4464;50.882;4.730;2023-03-23T02:01:54;13.30;99.90
8856;DHT22;4464;50.882;4.730;2023-03-23T02:04:23;13.20;99.90
8856;DHT22;4464;50.882;4.730;2023-03-23T02:06:51;13.20;99.90
8856;DHT22;4464;50.882;4.730;2023-03-23T02:09:18;13.30;99.90
8856;DHT22;4464;50.882;4.730;2023-03-23T02:11:45;13.30;99.90
8856;DHT22;4464;50.882;4.730;2023-03-23T02:14:14;13.30;99.90
8856;DHT22;4464;50.882;4.730;2023-03-23T02:24:53;13.40;99.90
8856;DHT22;4464;50.882;4.730;2023-03-23T02:35:44;13.40;99.90
8856;DHT22;4464;50.882;4.730;2023-03-23T02:38:20;13.40;99.90
8856;DHT22;4464;50.882;4.730;2023-03-23T02:40:49;13.30;99.90
8856;DHT22;4464;50.882;4.730;2023-03-23T02:43:21;13.30;99.90
8856;DHT22;4464;50.882;4.730;2023-03-23T02:45:48;13.30;99.90
8856;DHT22;4464;50.882;4.730;2023-03-23T02:48:17;13.30;99.90
8856;DHT22;4464;50.882;4.730;2023-03-23T02:50:48;13.30;99.90
8856;DHT22;4464;50.882;4.730;2023-03-23T02:53:18;13.30;99.90
8856;DHT22;4464;50.882;4.730;2023-03-23T02:55:47;13.20;99.90
8856;DHT22;4464;50.882;4.730;2023-03-23T02:58:16;13.20;99.90
8856;DHT22;4464;50.882;4.730;2023-03-23T03:00:42;13.20;99.90
8856;DHT22;4464;50.882;4.730;2023-03-23T03:03:12;13.20;99.90
8856;DHT22;4464;50.882;4.730;2023-03-23T03:10:57;13.20;99.90
8856;DHT22;4464;50.882;4.730;2023-03-23T03:19:17;13.10;99.90
8856;DHT22;4464;50.882;4.730;2023-03-23T03:21:46;13.10;99.90
8856;DHT22;4464;50.882;4.730;2023-03-23T03:24:16;13.10;99.90
8856;DHT22;4464;50.882;4.730;2023-03-23T03:26:46;13.10;99.90
8856;DHT22;4464;50.882;4.730;2023-03-23T03:29:14;13.00;99.90
8856;DHT22;4464;50.882;4.730;2023-03-23T03:31:46;13.00;99.90
8856;DHT22;4464;50.882;4.730;2023-03-23T03:34:14;13.10;99.90
8856;DHT22;4464;50.882;4.730;2023-03-23T03:36:46;13.10;99.90
8856;DHT22;4464;50.882;4.730;2023-03-23T03:39:15;13.10;99.90
8856;DHT22;4464;50.882;4.730;2023-03-23T03:41:43;13.00;99.90
8856;DHT22;4464;50.882;4.730;2023-03-23T03:44:12;13.00;99.90
8856;DHT22;4464;50.882;4.730;2023-03-23T03:46:38;13.00;99.90
8856;DHT22;4464;50.882;4.730;2023-03-23T03:49:08;13.00;99.90
8856;DHT22;4464;50.882;4.730;2023-03-23T03:51:39;13.00;99.90
8856;DHT22;4464;50.882;4.730;2023-03-23T03:54:08;13.00;99.90
8856;DHT22;4464;50.882;4.730;2023-03-23T03:56:37;12.90;99.90
8856;DHT22;4464;50.882;4.730;2023-03-23T03:59:06;13.00;99.90
8856;DHT22;4464;50.882;4.730;2023-03-23T04:01:36;13.00;99.90
8856;DHT22;4464;50.882;4.730;2023-03-23T04:04:03;13.00;99.90
8856;DHT22;4464;50.882;4.730;2023-03-23T04:06:29;13.00;99.90
8856;DHT22;4464;50.882;4.730;2023-03-23T04:08:57;12.90;99.90
8856;DHT22;4464;50.882;4.730;2023-03-23T04:11:25;13.00;99.90
8856;DHT22;4464;50.882;4.730;2023-03-23T04:13:51;12.90;99.90
8856;DHT22;4464;50.882;4.730;2023-03-23T04:16:17;12.90;99.90
8856;DHT22;4464;50.882;4.730;2023-03-23T04:18:43;12.90;99.90
8856;DHT22;4464;50.882;4.730;2023-03-23T04:21:09;12.90;99.90
8856;DHT22;4464;50.882;4.730;2023-03-23T04:23:36;12.90;99.90
8856;DHT22;4464;50.882;4.730;2023-03-23T04:26:03;12.90;99.90
8856;DHT22;4464;50.882;4.730;2023-03-23T04:28:29;12.90;99.90
8856;DHT22;4464;50.882;4.730;2023-03-23T04:31:03;12.90;99.90
8856;DHT22;4464;50.882;4.730;2023-03-23T04:33:29;12.80;99.90
8856;DHT22;4464;50.882;4.730;2023-03-23T04:35:58;12.80;99.90
8856;DHT22;4464;50.882;4.730;2023-03-23T04:38:28;12.80;99.90
8856;DHT22;4464;50.882;4.730;2023-03-23T04:40:55;12.90;99.90
8856;DHT22;4464;50.882;4.730;2023-03-23T04:43:22;12.90;99.90
8856;DHT22;4464;50.882;4.730;2023-03-23T04:45:56;12.90;99.90
8856;DHT22;4464;50.882;4.730;2023-03-23T04:48:29;12.90;99.90
8856;DHT22;4464;50.882;4.730;2023-03-23T04:50:56;12.90;99.90
8856;DHT22;4464;50.882;4.730;2023-03-23T04:53:22;12.90;99.90
8856;DHT22;4464;50.882;4.730;2023-03-23T04:55:50;12.90;99.90
8856;DHT22;4464;50.882;4.730;2023-03-23T04:58:16;12.90;99.90
8856;DHT22;4464;50.882;4.730;2023-03-23T05:00:45;12.90;99.90
8856;DHT22;4464;50.882;4.730;2023-03-23T05:03:18;12.90;99.90
8856;DHT22;4464;50.882;4.730;2023-03-23T05:05:47;12.90;99.90
8856;DHT22;4464;50.882;4.730;2023-03-23T05:08:20;12.90;99.90
8856;DHT22;4464;50.882;4.730;2023-03-23T05:10:54;12.90;99.90
8856;DHT22;4464;50.882;4.730;2023-03-23T05:13:20;12.90;99.90
8856;DHT22;4464;50.882;4.730;2023-03-23T05:15:46;12.90;99.90
8856;DHT22;4464;50.882;4.730;2023-03-23T05:18:13;12.80;99.90
8856;DHT22;4464;50.882;4.730;2023-03-23T05:20:38;12.80;99.90
8856;DHT22;4464;50.882;4.730;2023-03-23T05:23:05;12.70;99.90
8856;DHT22;4464;50.882;4.730;2023-03-23T05:25:31;12.70;99.90
8856;DHT22;4464;50.882;4.730;2023-03-23T05:28:04;12.70;99.90
8856;DHT22;4464;50.882;4.730;2023-03-23T05:30:29;12.70;99.90
8856;DHT22;4464;50.882;4.730;2023-03-23T05:32:57;12.60;99.90
8856;DHT22;4464;50.882;4.730;2023-03-23T05:35:27;12.60;99.90
8856;DHT22;4464;50.882;4.730;2023-03-23T05:37:53;12.60;99.90
8856;DHT22;4464;50.882;4.730;2023-03-23T05:40:25;12.60;99.90
8856;DHT22;4464;50.882;4.730;2023-03-23T05:42:51;12.60;99.90
8856;DHT22;4464;50.882;4.730;2023-03-23T05:45:18;12.60;99.90
8856;DHT22;4464;50.882;4.730;2023-03-23T05:47:47;12.60;99.90
8856;DHT22;4464;50.882;4.730;2023-03-23T05:50:16;12.60;99.90
8856;DHT22;4464;50.882;4.730;2023-03-23T05:52:44;12.60;99.90
8856;DHT22;4464;50.882;4.730;2023-03-23T05:55:10;12.50;99.90
8856;DHT22;4464;50.882;4.730;2023-03-23T05:57:37;12.60;99.90
8856;DHT22;4464;50.882;4.730;2023-03-23T06:00:05;12.60;99.90
8856;DHT22;4464;50.882;4.730;2023-03-23T06:02:42;12.60;99.90
8856;DHT22;4464;50.882;4.730;2023-03-23T06:05:16;12.50;99.90
8856;DHT22;4464;50.882;4.730;2023-03-23T06:07:43;12.60;99.90
8856;DHT22;4464;50.882;4.730;2023-03-23T06:10:09;12.50;99.90
8856;DHT22;4464;50.882;4.730;2023-03-23T06:12:36;12.60;99.90
8856;DHT22;4464;50.882;4.730;2023-03-23T06:15:03;12.60;99.90
8856;DHT22;4464;50.882;4.730;2023-03-23T06:17:29;12.60;99.90
8856;DHT22;4464;50.882;4.730;2023-03-23T06:19:57;12.60;99.90
8856;DHT22;4464;50.882;4.730;2023-03-23T06:22:23;12.70;99.90
8856;DHT22;4464;50.882;4.730;2023-03-23T06:24:49;12.70;99.90
8856;DHT22;4464;50.882;4.730;2023-03-23T06:27:17;12.70;99.90
8856;DHT22;4464;50.882;4.730;2023-03-23T06:29:43;12.70;99.90
8856;DHT22;4464;50.882;4.730;2023-03-23T06:32:13;12.70;99.90
8856;DHT22;4464;50.882;4.730;2023-03-23T06:34:39;12.70;99.90
8856;DHT22;4464;50.882;4.730;2023-03-23T06:37:09;12.70;99.90
8856;DHT22;4464;50.882;4.730;2023-03-23T06:39:40;12.70;99.90
8856;DHT22;4464;50.882;4.730;2023-03-23T06:42:09;12.70;99.90
8856;DHT22;4464;50.882;4.730;2023-03-23T06:44:36;12.80;99.90
8856;DHT22;4464;50.882;4.730;2023-03-23T06:47:03;12.70;99.90
8856;DHT22;4464;50.882;4.730;2023-03-23T06:49:29;12.80;99.90
8856;DHT22;4464;50.882;4.730;2023-03-23T06:51:55;12.80;99.90
8856;DHT22;4464;50.882;4.730;2023-03-23T06:54:24;12.80;99.90
8856;DHT22;4464;50.882;4.730;2023-03-23T06:56:49;12.80;99.90
8856;DHT22;4464;50.882;4.730;2023-03-23T06:59:15;12.90;99.90
8856;DHT22;4464;50.882;4.730;2023-03-23T07:01:41;12.90;99.90
8856;DHT22;4464;50.882;4.730;2023-03-23T07:04:07;12.90;99.90
8856;DHT22;4464;50.882;4.730;2023-03-23T07:06:35;12.90;99.90
8856;DHT22;4464;50.882;4.730;2023-03-23T07:09:00;12.80;99.90
8856;DHT22;4464;50.882;4.730;2023-03-23T07:11:26;12.80;99.90
8856;DHT22;4464;50.882;4.730;2023-03-23T07:13:52;12.70;99.90
8856;DHT22;4464;50.882;4.730;2023-03-23T07:16:21;12.70;99.90
8856;DHT22;4464;50.882;4.730;2023-03-23T07:18:47;12.50;99.90
8856;DHT22;4464;50.882;4.730;2023-03-23T07:21:15;12.40;99.90
8856;DHT22;4464;50.882;4.730;2023-03-23T07:23:43;12.20;99.90
8856;DHT22;4464;50.882;4.730;2023-03-23T07:26:09;12.10;99.90
8856;DHT22;4464;50.882;4.730;2023-03-23T07:28:36;12.00;99.90
8856;DHT22;4464;50.882;4.730;2023-03-23T07:31:02;11.90;99.90
8856;DHT22;4464;50.882;4.730;2023-03-23T07:33:28;11.80;99.90
8856;DHT22;4464;50.882;4.730;2023-03-23T07:35:54;11.80;99.90
8856;DHT22;4464;50.882;4.730;2023-03-23T07:38:19;11.70;99.90
8856;DHT22;4464;50.882;4.730;2023-03-23T07:40:46;11.70;99.90
8856;DHT22;4464;50.882;4.730;2023-03-23T07:43:12;11.10;99.90
8856;DHT22;4464;50.882;4.730;2023-03-23T07:45:37;10.70;99.90
8856;DHT22;4464;50.882;4.730;2023-03-23T07:48:03;10.50;99.90
8856;DHT22;4464;50.882;4.730;2023-03-23T07:50:29;10.40;99.90
8856;DHT22;4464;50.882;4.730;2023-03-23T07:52:56;10.30;99.90
8856;DHT22;4464;50.882;4.730;2023-03-23T07:55:25;10.20;99.90
8856;DHT22;4464;50.882;4.730;2023-03-23T07:57:53;10.20;99.90
8856;DHT22;4464;50.882;4.730;2023-03-23T08:00:20;10.20;99.90
8856;DHT22;4464;50.882;4.730;2023-03-23T08:02:55;10.10;99.90
8856;DHT22;4464;50.882;4.730;2023-03-23T08:05:21;10.10;99.90
8856;DHT22;4464;50.882;4.730;2023-03-23T08:07:50;10.10;99.90
8856;DHT22;4464;50.882;4.730;2023-03-23T08:10:17;10.10;99.90
8856;DHT22;4464;50.882;4.730;2023-03-23T08:12:44;10.20;99.90
8856;DHT22;4464;50.882;4.730;2023-03-23T08:15:13;10.20;99.90
8856;DHT22;4464;50.882;4.730;2023-03-23T08:17:45;10.30;99.90
8856;DHT22;4464;50.882;4.730;2023-03-23T08:20:16;10.30;99.90
8856;DHT22;4464;50.882;4.730;2023-03-23T08:22:51;10.30;99.90
8856;DHT22;4464;50.882;4.730;2023-03-23T08:25:18;10.40;99.90
8856;DHT22;4464;50.882;4.730;2023-03-23T08:27:45;10.40;99.90
8856;DHT22;4464;50.882;4.730;2023-03-23T08:30:16;10.40;99.90
8856;DHT22;4464;50.882;4.730;2023-03-23T08:32:45;10.50;99.90
8856;DHT22;4464;50.882;4.730;2023-03-23T08:35:12;10.60;99.90
8856;DHT22;4464;50.882;4.730;2023-03-23T08:37:39;10.60;99.90
8856;DHT22;4464;50.882;4.730;2023-03-23T08:40:08;10.70;99.90
8856;DHT22;4464;50.882;4.730;2023-03-23T08:42:42;10.90;99.90
8856;DHT22;4464;50.882;4.730;2023-03-23T08:45:10;11.10;99.90
8856;DHT22;4464;50.882;4.730;2023-03-23T08:47:39;11.10;99.90
8856;DHT22;4464;50.882;4.730;2023-03-23T08:50:07;11.00;99.90
8856;DHT22;4464;50.882;4.730;2023-03-23T08:52:33;11.00;99.90
8856;DHT22;4464;50.882;4.730;2023-03-23T08:55:03;10.90;99.90
8856;DHT22;4464;50.882;4.730;2023-03-23T08:57:35;10.70;99.90
8856;DHT22;4464;50.882;4.730;2023-03-23T09:00:03;10.70;99.90
8856;DHT22;4464;50.882;4.730;2023-03-23T09:02:41;10.70;99.90
8856;DHT22;4464;50.882;4.730;2023-03-23T09:05:09;10.70;99.90
8856;DHT22;4464;50.882;4.730;2023-03-23T09:07:43;10.60;99.90
8856;DHT22;4464;50.882;4.730;2023-03-23T09:10:10;10.60;99.90
8856;DHT22;4464;50.882;4.730;2023-03-23T09:12:39;10.60;99.90
8856;DHT22;4464;50.882;4.730;2023-03-23T09:15:06;10.60;99.90
8856;DHT22;4464;50.882;4.730;2023-03-23T09:17:47;10.60;99.90
8856;DHT22;4464;50.882;4.730;2023-03-23T09:20:15;10.60;99.90
8856;DHT22;4464;50.882;4.730;2023-03-23T09:22:48;10.50;99.90
8856;DHT22;4464;50.882;4.730;2023-03-23T09:25:16;10.40;99.90
8856;DHT22;4464;50.882;4.730;2023-03-23T09:27:49;10.40;99.90
8856;DHT22;4464;50.882;4.730;2023-03-23T09:30:20;10.40;99.90
8856;DHT22;4464;50.882;4.730;2023-03-23T09:32:51;10.40;99.90
8856;DHT22;4464;50.882;4.730;2023-03-23T09:35:16;10.40;99.90
8856;DHT22;4464;50.882;4.730;2023-03-23T09:37:44;10.50;99.90
8856;DHT22;4464;50.882;4.730;2023-03-23T09:40:20;10.60;99.90
8856;DHT22;4464;50.882;4.730;2023-03-23T09:45:39;10.70;99.90
8856;DHT22;4464;50.882;4.730;2023-03-23T09:50:58;10.80;99.90
8856;DHT22;4464;50.882;4.730;2023-03-23T09:53:36;10.80;99.90
8856;DHT22;4464;50.882;4.730;2023-03-23T09:56:09;11.10;99.90
8856;DHT22;4464;50.882;4.730;2023-03-23T09:59:23;11.20;99.90
8856;DHT22;4464;50.882;4.730;2023-03-23T10:01:55;11.70;99.90
8856;DHT22;4464;50.882;4.730;2023-03-23T10:04:43;12.40;99.90
8856;DHT22;4464;50.882;4.730;2023-03-23T10:07:23;13.00;99.90
8856;DHT22;4464;50.882;4.730;2023-03-23T10:09:56;13.10;99.90
8856;DHT22;4464;50.882;4.730;2023-03-23T10:15:20;12.70;99.90
8856;DHT22;4464;50.882;4.730;2023-03-23T10:18:02;12.60;99.90
8856;DHT22;4464;50.882;4.730;2023-03-23T10:20:42;12.60;99.90
8856;DHT22;4464;50.882;4.730;2023-03-23T10:25:42;12.50;99.90
8856;DHT22;4464;50.882;4.730;2023-03-23T10:28:19;12.60;99.90
8856;DHT22;4464;50.882;4.730;2023-03-23T10:30:53;12.90;99.90
8856;DHT22;4464;50.882;4.730;2023-03-23T10:36:23;12.90;99.90
8856;DHT22;4464;50.882;4.730;2023-03-23T10:38:58;13.10;99.90
8856;DHT22;4464;50.882;4.730;2023-03-23T10:41:25;13.30;99.90
8856;DHT22;4464;50.882;4.730;2023-03-23T10:43:53;13.40;99.90
8856;DHT22;4464;50.882;4.730;2023-03-23T10:46:26;13.60;99.90
8856;DHT22;4464;50.882;4.730;2023-03-23T10:48:57;13.80;99.90
8856;DHT22;4464;50.882;4.730;2023-03-23T10:51:34;13.90;99.90
8856;DHT22;4464;50.882;4.730;2023-03-23T10:54:02;14.10;99.90
8856;DHT22;4464;50.882;4.730;2023-03-23T10:56:39;14.20;99.90
8856;DHT22;4464;50.882;4.730;2023-03-23T10:59:20;14.50;99.90
8856;DHT22;4464;50.882;4.730;2023-03-23T11:01:55;15.00;99.90
8856;DHT22;4464;50.882;4.730;2023-03-23T11:04:22;15.80;99.90
8856;DHT22;4464;50.882;4.730;2023-03-23T11:06:52;16.20;99.90
8856;DHT22;4464;50.882;4.730;2023-03-23T11:09:34;16.30;99.90
8856;DHT22;4464;50.882;4.730;2023-03-23T11:12:03;16.40;99.90
8856;DHT22;4464;50.882;4.730;2023-03-23T11:14:32;16.50;99.90
8856;DHT22;4464;50.882;4.730;2023-03-23T11:17:19;15.80;99.90
8856;DHT22;4464;50.882;4.730;2023-03-23T11:19:46;15.70;99.90
8856;DHT22;4464;50.882;4.730;2023-03-23T11:22:31;16.10;99.90
8856;DHT22;4464;50.882;4.730;2023-03-23T11:25:03;15.80;99.90
8856;DHT22;4464;50.882;4.730;2023-03-23T11:27:32;15.50;99.90
8856;DHT22;4464;50.882;4.730;2023-03-23T11:30:07;15.60;99.90
8856;DHT22;4464;50.882;4.730;2023-03-23T11:32:34;15.50;99.90
8856;DHT22;4464;50.882;4.730;2023-03-23T11:35:05;15.90;99.90
8856;DHT22;4464;50.882;4.730;2023-03-23T11:37:45;16.30;99.90
8856;DHT22;4464;50.882;4.730;2023-03-23T11:40:18;15.80;99.90
8856;DHT22;4464;50.882;4.730;2023-03-23T11:42:48;15.70;99.90
8856;DHT22;4464;50.882;4.730;2023-03-23T11:45:21;15.60;99.90
8856;DHT22;4464;50.882;4.730;2023-03-23T11:51:01;15.80;99.90
8856;DHT22;4464;50.882;4.730;2023-03-23T11:54:02;15.80;99.90
8856;DHT22;4464;50.882;4.730;2023-03-23T11:56:34;16.40;99.90
8856;DHT22;4464;50.882;4.730;2023-03-23T11:59:05;17.10;99.90
8856;DHT22;4464;50.882;4.730;2023-03-23T12:07:08;16.60;99.90
8856;DHT22;4464;50.882;4.730;2023-03-23T12:26:36;17.70;99.90
8856;DHT22;4464;50.882;4.730;2023-03-23T12:32:23;19.60;99.90
8856;DHT22;4464;50.882;4.730;2023-03-23T12:43:48;19.70;99.90
8856;DHT22;4464;50.882;4.730;2023-03-23T12:54:46;17.70;99.90
8856;DHT22;4464;50.882;4.730;2023-03-23T13:07:58;15.90;99.90
8856;DHT22;4464;50.882;4.730;2023-03-23T13:16:35;15.90;99.90
8856;DHT22;4464;50.882;4.730;2023-03-23T13:21:54;18.80;99.90
8856;DHT22;4464;50.882;4.730;2023-03-23T13:24:26;19.70;99.90
8856;DHT22;4464;50.882;4.730;2023-03-23T13:26:53;20.10;99.90
8856;DHT22;4464;50.882;4.730;2023-03-23T13:29:23;19.80;99.90
8856;DHT22;4464;50.882;4.730;2023-03-23T13:31:51;19.30;99.90
8856;DHT22;4464;50.882;4.730;2023-03-23T13:34:32;19.60;99.90
8856;DHT22;4464;50.882;4.730;2023-03-23T13:37:31;20.00;99.90
8856;DHT22;4464;50.882;4.730;2023-03-23T13:42:50;20.60;99.90
8856;DHT22;4464;50.882;4.730;2023-03-23T13:48:23;21.60;99.90
8856;DHT22;4464;50.882;4.730;2023-03-23T13:50:59;20.20;99.90
8856;DHT22;4464;50.882;4.730;2023-03-23T13:53:31;18.80;99.90
8856;DHT22;4464;50.882;4.730;2023-03-23T13:56:20;18.00;99.90
8856;DHT22;4464;50.882;4.730;2023-03-23T13:59:55;17.80;99.90
8856;DHT22;4464;50.882;4.730;2023-03-23T14:01:52;17.80;99.90
8856;DHT22;4464;50.882;4.730;2023-03-23T14:04:19;17.40;99.90
8856;DHT22;4464;50.882;4.730;2023-03-23T14:06:49;17.10;99.90
8856;DHT22;4464;50.882;4.730;2023-03-23T14:12:02;16.70;99.90
8856;DHT22;4464;50.882;4.730;2023-03-23T14:14:41;16.60;99.90
8856;DHT22;4464;50.882;4.730;2023-03-23T14:17:22;16.50;99.90
8856;DHT22;4464;50.882;4.730;2023-03-23T14:19:56;16.20;99.90
8856;DHT22;4464;50.882;4.730;2023-03-23T14:22:36;15.20;99.90
8856;DHT22;4464;50.882;4.730;2023-03-23T14:25:15;15.00;99.90
8856;DHT22;4464;50.882;4.730;2023-03-23T14:27:41;14.80;99.90
8856;DHT22;4464;50.882;4.730;2023-03-23T14:30:13;14.70;99.90
8856;DHT22;4464;50.882;4.730;2023-03-23T14:32:39;14.80;99.90
8856;DHT22;4464;50.882;4.730;2023-03-23T14:37:50;14.60;99.90
8856;DHT22;4464;50.882;4.730;2023-03-23T14:40:17;14.50;99.90
8856;DHT22;4464;50.882;4.730;2023-03-23T14:42:43;14.50;99.90
8856;DHT22;4464;50.882;4.730;2023-03-23T14:45:16;14.60;99.90
8856;DHT22;4464;50.882;4.730;2023-03-23T14:47:45;14.80;99.90
8856;DHT22;4464;50.882;4.730;2023-03-23T14:53:09;15.00;99.90
8856;DHT22;4464;50.882;4.730;2023-03-23T14:55:42;15.00;99.90
8856;DHT22;4464;50.882;4.730;2023-03-23T14:58:14;14.90;99.90
8856;DHT22;4464;50.882;4.730;2023-03-23T15:00:49;14.90;99.90
8856;DHT22;4464;50.882;4.730;2023-03-23T15:03:20;14.90;99.90
8856;DHT22;4464;50.882;4.730;2023-03-23T15:05:56;14.70;99.90
8856;DHT22;4464;50.882;4.730;2023-03-23T15:08:27;14.50;99.90
8856;DHT22;4464;50.882;4.730;2023-03-23T15:11:21;14.50;99.90
8856;DHT22;4464;50.882;4.730;2023-03-23T15:13:51;14.50;99.90
8856;DHT22;4464;50.882;4.730;2023-03-23T15:16:31;14.50;99.90
8856;DHT22;4464;50.882;4.730;2023-03-23T15:19:04;15.40;99.90
8856;DHT22;4464;50.882;4.730;2023-03-23T15:21:48;15.70;99.90
8856;DHT22;4464;50.882;4.730;2023-03-23T15:24:34;15.70;99.90
8856;DHT22;4464;50.882;4.730;2023-03-23T15:27:22;15.60;99.90
8856;DHT22;4464;50.882;4.730;2023-03-23T15:29:54;15.40;99.90
8856;DHT22;4464;50.882;4.730;2023-03-23T15:32:27;15.40;99.90
8856;DHT22;4464;50.882;4.730;2023-03-23T15:34:53;15.50;99.90
8856;DHT22;4464;50.882;4.730;2023-03-23T15:37:25;16.00;99.90
8856;DHT22;4464;50.882;4.730;2023-03-23T15:39:51;16.30;99.90
8856;DHT22;4464;50.882;4.730;2023-03-23T15:42:34;16.00;99.90
8856;DHT22;4464;50.882;4.730;2023-03-23T15:52:49;15.70;99.90
8856;DHT22;4464;50.882;4.730;2023-03-23T15:55:23;15.50;99.90
8856;DHT22;4464;50.882;4.730;2023-03-23T15:57:54;15.50;99.90
8856;DHT22;4464;50.882;4.730;2023-03-23T16:00:28;15.50;99.90
8856;DHT22;4464;50.882;4.730;2023-03-23T16:03:05;15.40;99.90
8856;DHT22;4464;50.882;4.730;2023-03-23T16:05:32;15.30;99.90
8856;DHT22;4464;50.882;4.730;2023-03-23T16:07:58;15.40;99.90
8856;DHT22;4464;50.882;4.730;2023-03-23T16:10:25;15.30;99.90
8856;DHT22;4464;50.882;4.730;2023-03-23T16:12:51;15.30;99.90
8856;DHT22;4464;50.882;4.730;2023-03-23T16:15:18;15.20;99.90
8856;DHT22;4464;50.882;4.730;2023-03-23T16:17:44;15.10;99.90
8856;DHT22;4464;50.882;4.730;2023-03-23T16:20:22;15.00;99.90
8856;DHT22;4464;50.882;4.730;2023-03-23T16:22:49;15.20;99.90
8856;DHT22;4464;50.882;4.730;2023-03-23T16:25:15;15.30;99.90
8856;DHT22;4464;50.882;4.730;2023-03-23T16:27:42;15.50;99.90
8856;DHT22;4464;50.882;4.730;2023-03-23T16:30:12;15.60;99.90
8856;DHT22;4464;50.882;4.730;2023-03-23T16:32:38;15.60;99.90
8856;DHT22;4464;50.882;4.730;2023-03-23T16:35:05;15.60;99.90
8856;DHT22;4464;50.882;4.730;2023-03-23T16:37:31;15.50;99.90
8856;DHT22;4464;50.882;4.730;2023-03-23T16:39:58;15.50;99.90
8856;DHT22;4464;50.882;4.730;2023-03-23T16:42:24;15.60;99.90
8856;DHT22;4464;50.882;4.730;2023-03-23T16:44:49;15.50;99.90
8856;DHT22;4464;50.882;4.730;2023-03-23T16:47:16;15.50;99.90
8856;DHT22;4464;50.882;4.730;2023-03-23T16:49:45;15.60;99.90
8856;DHT22;4464;50.882;4.730;2023-03-23T16:52:11;15.70;99.90
8856;DHT22;4464;50.882;4.730;2023-03-23T16:54:41;15.80;99.90
8856;DHT22;4464;50.882;4.730;2023-03-23T16:57:07;15.70;99.90
8856;DHT22;4464;50.882;4.730;2023-03-23T16:59:35;15.70;99.90
8856;DHT22;4464;50.882;4.730;2023-03-23T17:02:06;15.60;99.90
8856;DHT22;4464;50.882;4.730;2023-03-23T17:04:36;15.50;99.90
8856;DHT22;4464;50.882;4.730;2023-03-23T17:07:03;15.40;99.90
8856;DHT22;4464;50.882;4.730;2023-03-23T17:09:32;15.40;99.90
8856;DHT22;4464;50.882;4.730;2023-03-23T17:12:00;15.40;99.90
8856;DHT22;4464;50.882;4.730;2023-03-23T17:14:26;15.30;99.90
8856;DHT22;4464;50.882;4.730;2023-03-23T17:16:51;15.20;99.90
8856;DHT22;4464;50.882;4.730;2023-03-23T17:19:17;15.20;99.90
8856;DHT22;4464;50.882;4.730;2023-03-23T17:21:45;15.20;99.90
8856;DHT22;4464;50.882;4.730;2023-03-23T17:24:14;15.20;99.90
8856;DHT22;4464;50.882;4.730;2023-03-23T17:26:39;15.20;99.90
8856;DHT22;4464;50.882;4.730;2023-03-23T17:29:05;15.10;99.90
8856;DHT22;4464;50.882;4.730;2023-03-23T17:31:33;15.00;99.90
8856;DHT22;4464;50.882;4.730;2023-03-23T17:33:59;14.80;99.90
8856;DHT22;4464;50.882;4.730;2023-03-23T17:36:25;14.80;99.90
8856;DHT22;4464;50.882;4.730;2023-03-23T17:38:51;14.80;99.90
8856;DHT22;4464;50.882;4.730;2023-03-23T17:41:17;14.90;99.90
8856;DHT22;4464;50.882;4.730;2023-03-23T17:43:45;14.80;99.90
8856;DHT22;4464;50.882;4.730;2023-03-23T17:46:14;14.80;99.90
8856;DHT22;4464;50.882;4.730;2023-03-23T17:48:40;14.90;99.90
8856;DHT22;4464;50.882;4.730;2023-03-23T17:51:08;14.90;99.90
8856;DHT22;4464;50.882;4.730;2023-03-23T17:53:35;14.90;99.90
8856;DHT22;4464;50.882;4.730;2023-03-23T17:56:02;14.90;99.90
8856;DHT22;4464;50.882;4.730;2023-03-23T17:58:28;14.90;99.90
8856;DHT22;4464;50.882;4.730;2023-03-23T18:00:56;14.90;99.90
8856;DHT22;4464;50.882;4.730;2023-03-23T18:03:25;14.90;99.90
8856;DHT22;4464;50.882;4.730;2023-03-23T18:06:01;14.90;99.90
8856;DHT22;4464;50.882;4.730;2023-03-23T18:08:28;14.90;99.90
8856;DHT22;4464;50.882;4.730;2023-03-23T18:10:57;14.90;99.90
8856;DHT22;4464;50.882;4.730;2023-03-23T18:13:27;14.90;99.90
8856;DHT22;4464;50.882;4.730;2023-03-23T18:15:54;14.90;99.90
8856;DHT22;4464;50.882;4.730;2023-03-23T18:18:24;14.90;99.90
8856;DHT22;4464;50.882;4.730;2023-03-23T18:21:02;14.90;99.90
8856;DHT22;4464;50.882;4.730;2023-03-23T18:23:34;14.90;99.90
8856;DHT22;4464;50.882;4.730;2023-03-23T18:26:02;14.90;99.90
8856;DHT22;4464;50.882;4.730;2023-03-23T18:28:28;14.90;99.90
8856;DHT22;4464;50.882;4.730;2023-03-23T18:30:53;14.90;99.90